This is the latest recevied weather packets stored in our database for station/object IZ1HMT-3. If no packets are shown the sender has not sent any weather packets the latest 10 day(s).
| Time | Temp. | Humidity | Pressure | Rain* | Wind** | Luminosity | Snow |
|---|---|---|---|---|---|---|---|
| 1787416768 | 30° C | 44% | 1014.2 hPa | - | - | - | - |
| 1787416163 | 30° C | 43% | 1014.2 hPa | - | - | - | - |
| 1787415558 | 30° C | 42% | 1014.1 hPa | - | - | - | - |
| 1787414954 | 30.56° C | 41% | 1014.1 hPa | - | - | - | - |
| 1787414351 | 30.56° C | 40% | 1014.1 hPa | - | - | - | - |
| 1787413746 | 30.56° C | 40% | 1014 hPa | - | - | - | - |
| 1787413142 | 30.56° C | 40% | 1014 hPa | - | - | - | - |
| 1787411934 | 31.11° C | 36% | 1014 hPa | - | - | - | - |
| 1787411330 | 31.11° C | 33% | 1014.1 hPa | - | - | - | - |
| 1787410726 | 31.11° C | 34% | 1014.1 hPa | - | - | - | - |
| 1787410122 | 31.67° C | 34% | 1014 hPa | - | - | - | - |
| 1787409517 | 31.67° C | 34% | 1014 hPa | - | - | - | - |
| 1787408918 | 31.67° C | 35% | 1014 hPa | - | - | - | - |
| 1787408309 | 31.11° C | 36% | 1014.1 hPa | - | - | - | - |
| 1787407706 | 31.67° C | 36% | 1014.1 hPa | - | - | - | - |
| 1787406497 | 32.78° C | 37% | 1014 hPa | - | - | - | - |
| 1787405893 | 32.78° C | 37% | 1014.1 hPa | - | - | - | - |
| 1787405289 | 33.33° C | 36% | 1014.1 hPa | - | - | - | - |
| 1787404685 | 31.67° C | 40% | 1014.2 hPa | - | - | - | - |
| 1787404080 | 31.11° C | 41% | 1014.1 hPa | - | - | - | - |
| 1787402872 | 31.67° C | 39% | 1014.1 hPa | - | - | - | - |
| 1787402267 | 31.11° C | 40% | 1014.1 hPa | - | - | - | - |
| 1787400455 | 32.22° C | 40% | 1014.3 hPa | - | - | - | - |
| 1787399850 | 31.11° C | 41% | 1014.2 hPa | - | - | - | - |
| 1787399246 | 31.11° C | 42% | 1014.2 hPa | - | - | - | - |
* Rain since midnight (hover to see other rain measurements)
** Current wind speed in m/s (hover to see current wind gust speed)